Terminal Aerodrome Forecast
Issued by NWS Austin/San Antonio, TX

Home | Current Version | Previous Version | Text Only | Print | Product List | Glossary On
Versions: 1 2 3 4 5 6 7 8 9 10 11 12 13 14 15 16 17 18 19 20 21 22 23 24 25 26 27
000
FTUS44 KEWX 241555 AAC
TAFSAT
TAF AMD
KSAT 241555Z 2416/2518 15009KT P6SM SCT040
      TEMPO 2416/2417 BKN020
     FM251000 17004KT P6SM BKN015
     FM251500 20005KT P6SM FEW040=

USA.gov is the U.S. government's official web portal to all federal, state and local government web resources and services.